createdAt,value
2019-02-10T00:00:07.141Z,10.94
2019-02-10T00:03:02.623Z,10.89
2019-02-10T00:05:31.634Z,11.01
2019-02-10T00:08:33.812Z,10.92
2019-02-10T00:14:01.599Z,11.25
2019-02-10T00:20:40.937Z,11.14
2019-02-10T00:23:31.314Z,11.09
2019-02-10T00:33:15.347Z,11.31
2019-02-10T00:36:05.704Z,11.10
2019-02-10T00:38:51.166Z,11.10
2019-02-10T00:41:53.940Z,11.11
2019-02-10T00:50:35.830Z,11.11
2019-02-10T00:53:20.230Z,11.14
2019-02-10T01:05:15.423Z,10.94
2019-02-10T01:17:06.932Z,11.17
2019-02-10T01:20:04.923Z,10.98
2019-02-10T01:26:32.917Z,10.93
2019-02-10T01:29:31.003Z,10.90
2019-02-10T01:32:27.485Z,10.94
2019-02-10T01:50:41.278Z,11.01
2019-02-10T01:53:40.406Z,11.44
2019-02-10T01:59:19.851Z,11.78
2019-02-10T02:02:32.555Z,11.60
2019-02-10T02:08:18.633Z,11.37
2019-02-10T02:11:17.853Z,11.02
2019-02-10T02:17:09.760Z,11.24
2019-02-10T02:26:32.474Z,11.75
2019-02-10T02:32:57.995Z,10.99
2019-02-10T02:38:48.774Z,11.08
2019-02-10T02:41:48.079Z,11.14
2019-02-10T02:44:16.265Z,11.04
2019-02-10T02:47:04.306Z,10.66
2019-02-10T02:58:57.625Z,10.54
2019-02-10T03:01:45.016Z,10.25
2019-02-10T03:04:46.470Z,9.97
2019-02-10T03:09:46.213Z,10.48
2019-02-10T03:12:14.706Z,10.43
2019-02-10T03:18:03.101Z,10.13
2019-02-10T03:20:50.654Z,10.46
2019-02-10T03:26:38.209Z,10.50
2019-02-10T03:31:56.815Z,9.51
2019-02-10T03:34:55.823Z,9.71
2019-02-10T03:40:57.285Z,9.53
2019-02-10T03:46:33.622Z,10.04
2019-02-10T03:52:19.157Z,10.16
2019-02-10T03:58:07.587Z,10.02
2019-02-10T04:03:51.692Z,10.13
2019-02-10T04:06:39.209Z,10.03
2019-02-10T04:09:26.687Z,10.01
2019-02-10T04:14:53.535Z,10.02
2019-02-10T04:20:53.685Z,9.97
2019-02-10T04:26:24.601Z,9.86
2019-02-10T04:29:05.500Z,9.99
2019-02-10T04:37:30.273Z,9.79
2019-02-10T04:40:10.711Z,9.97
2019-02-10T04:43:00.438Z,10.02
2019-02-10T04:48:44.154Z,10.03
2019-02-10T04:51:23.635Z,10.00
2019-02-10T04:57:35.914Z,9.99
2019-02-10T05:05:46.404Z,9.84
2019-02-10T05:08:33.896Z,9.81
2019-02-10T05:11:35.683Z,9.86
2019-02-10T05:17:13.748Z,9.85
2019-02-10T05:23:02.522Z,9.66
2019-02-10T05:25:51.500Z,9.76
2019-02-10T05:31:27.889Z,9.74
2019-02-10T05:34:16.185Z,9.70
2019-02-10T05:36:55.040Z,9.86
2019-02-10T05:39:42.541Z,9.88
2019-02-10T05:46:50.679Z,9.92
2019-02-10T05:52:22.356Z,10.05
2019-02-10T05:54:50.980Z,10.08
2019-02-10T06:03:52.091Z,10.02
2019-02-10T06:09:48.898Z,10.26
2019-02-10T06:15:27.185Z,10.37
2019-02-10T06:18:06.011Z,10.33
2019-02-10T06:21:40.837Z,10.54
2019-02-10T06:23:34.147Z,10.28
2019-02-10T06:29:19.858Z,10.56
2019-02-10T06:32:19.034Z,10.60
2019-02-10T06:34:56.773Z,10.67
2019-02-10T06:43:41.710Z,10.76
2019-02-10T06:48:59.856Z,10.88
2019-02-10T06:51:38.706Z,10.88
2019-02-10T06:54:38.148Z,10.85
2019-02-10T06:57:15.643Z,10.88
2019-02-10T07:00:06.081Z,10.88
2019-02-10T07:06:03.043Z,10.99
2019-02-10T07:08:30.222Z,10.97
2019-02-10T07:11:23.139Z,11.05
2019-02-10T07:16:57.669Z,11.11
2019-02-10T07:19:57.449Z,11.12
2019-02-10T07:27:51.845Z,11.11
2019-02-10T07:33:40.993Z,10.78
2019-02-10T07:36:19.261Z,11.03
2019-02-10T07:39:20.692Z,10.71
2019-02-10T07:45:07.519Z,11.00
2019-02-10T07:47:45.353Z,11.08
2019-02-10T07:50:37.872Z,11.06
2019-02-10T07:53:44.135Z,10.99
2019-02-10T07:59:38.908Z,11.24
2019-02-10T08:05:27.287Z,11.27
2019-02-10T08:08:21.454Z,11.38
2019-02-10T08:11:07.902Z,11.48
2019-02-10T08:22:28.165Z,11.93
2019-02-10T08:34:14.708Z,12.04
2019-02-10T08:37:04.210Z,12.19
2019-02-10T08:39:37.812Z,12.06
2019-02-10T08:45:34.351Z,12.00
2019-02-10T08:51:38.685Z,12.23
2019-02-10T08:54:24.262Z,12.39
2019-02-10T08:58:43.661Z,12.51
2019-02-10T09:09:17.174Z,12.44
2019-02-10T09:12:24.083Z,12.28
2019-02-10T09:14:56.740Z,12.37
2019-02-10T09:17:30.516Z,12.41
2019-02-10T09:20:18.275Z,12.40
2019-02-10T13:38:24.325Z,12.48
2019-02-10T13:44:40.559Z,12.29
2019-02-10T13:51:00.779Z,12.00
2019-02-10T13:56:54.133Z,11.98
2019-02-10T14:18:08.146Z,12.05
2019-02-10T14:30:59.087Z,11.95
2019-02-10T14:33:42.634Z,11.99
2019-02-10T14:36:22.846Z,11.84
2019-02-10T14:39:14.768Z,11.76
2019-02-10T14:42:03.325Z,11.51
2019-02-10T15:06:58.714Z,10.60
2019-02-10T15:10:11.792Z,10.50
2019-02-10T15:22:16.575Z,10.44
2019-02-10T15:28:36.250Z,10.54
2019-02-10T15:35:14.093Z,10.57
2019-02-10T15:40:56.965Z,10.51
